createdAt,value
2018-01-18T00:02:23.856Z,72.79
2018-01-18T00:04:51.328Z,72.69
2018-01-18T00:07:18.763Z,72.25
2018-01-18T00:09:46.239Z,71.82
2018-01-18T00:12:13.675Z,71.26
2018-01-18T00:14:41.110Z,70.53
2018-01-18T00:17:08.563Z,71.06
2018-01-18T00:19:36.021Z,70.22
2018-01-18T00:22:03.494Z,69.61
2018-01-18T00:24:31.118Z,69.64
2018-01-18T00:26:58.589Z,69.29
2018-01-18T00:29:26.036Z,69.01
2018-01-18T00:31:53.509Z,69.19
2018-01-18T00:34:20.958Z,69.38
2018-01-18T00:36:48.665Z,69.53
2018-01-18T00:39:16.347Z,69.81
2018-01-18T00:41:43.814Z,70.03
2018-01-18T00:44:11.275Z,70.29
2018-01-18T00:46:38.767Z,70.10
2018-01-18T00:49:06.216Z,70.08
2018-01-18T00:51:33.667Z,70.33
2018-01-18T00:54:01.228Z,69.95
2018-01-18T00:56:28.699Z,69.60
2018-01-18T00:58:56.144Z,69.66
2018-01-18T01:01:23.597Z,69.64
2018-01-18T01:03:51.088Z,69.54
2018-01-18T01:06:18.562Z,69.25
2018-01-18T01:08:46.024Z,68.88
2018-01-18T01:11:13.481Z,68.68
2018-01-18T01:13:40.948Z,68.09
2018-01-18T01:16:08.439Z,67.27
2018-01-18T01:18:35.954Z,66.22
2018-01-18T01:21:03.419Z,66.09
2018-01-18T01:23:30.897Z,66.21
2018-01-18T01:25:58.356Z,65.78
2018-01-18T01:28:25.812Z,66.11
2018-01-18T01:30:53.270Z,66.39
2018-01-18T01:33:20.713Z,66.85
2018-01-18T01:35:48.183Z,67.06
2018-01-18T01:38:15.886Z,67.06
2018-01-18T01:40:43.329Z,67.62
2018-01-18T01:43:10.783Z,67.61
2018-01-18T01:45:38.212Z,67.73
2018-01-18T01:48:05.651Z,66.96
2018-01-18T01:50:33.183Z,67.21
2018-01-18T01:53:00.697Z,67.32
2018-01-18T01:55:28.183Z,67.37
2018-01-18T01:57:55.667Z,67.39
2018-01-18T02:00:23.108Z,67.39
2018-01-18T02:02:50.557Z,67.40
2018-01-18T02:05:18.046Z,67.49
2018-01-18T02:07:45.490Z,67.81
2018-01-18T02:10:12.930Z,67.77
2018-01-18T02:12:40.426Z,67.34
2018-01-18T02:15:07.914Z,67.68
2018-01-18T02:17:35.432Z,68.08
2018-01-18T02:20:02.927Z,68.57
2018-01-18T02:22:30.560Z,68.82
2018-01-18T02:24:58.005Z,68.95
2018-01-18T02:27:25.451Z,69.11
2018-01-18T02:29:52.891Z,68.76
2018-01-18T02:32:20.338Z,69.08
2018-01-18T02:34:47.815Z,69.35
2018-01-18T02:37:15.340Z,69.82
2018-01-18T02:39:42.831Z,69.87
2018-01-18T02:42:10.263Z,70.14
2018-01-18T02:44:37.718Z,70.33
2018-01-18T02:47:05.161Z,70.59
2018-01-18T02:49:32.600Z,71.02
2018-01-18T02:52:00.050Z,71.34
2018-01-18T02:54:27.548Z,71.93
2018-01-18T02:56:54.994Z,72.06
2018-01-18T02:59:22.458Z,72.16
2018-01-18T03:01:49.899Z,71.85
2018-01-18T03:04:17.488Z,71.85
2018-01-18T03:06:45.008Z,71.91
2018-01-18T03:09:12.473Z,72.15
2018-01-18T03:11:39.969Z,72.21
2018-01-18T03:14:07.453Z,72.33
2018-01-18T03:16:35.243Z,72.46
2018-01-18T03:19:02.751Z,72.45
2018-01-18T03:21:30.190Z,72.39
2018-01-18T03:23:57.654Z,72.65
2018-01-18T03:26:25.103Z,72.64
2018-01-18T03:28:52.560Z,72.29
2018-01-18T03:31:20.022Z,72.15
2018-01-18T03:33:47.479Z,72.16
2018-01-18T03:36:14.935Z,71.75
2018-01-18T03:38:42.366Z,72.08
2018-01-18T03:41:09.851Z,72.22
2018-01-18T03:43:37.282Z,72.92
2018-01-18T03:46:04.742Z,73.11
2018-01-18T03:48:32.202Z,72.91
2018-01-18T03:50:59.647Z,73.20
2018-01-18T03:53:27.106Z,73.43
2018-01-18T03:55:54.562Z,73.28
2018-01-18T03:58:22.060Z,73.32
2018-01-18T04:00:49.558Z,73.28
2018-01-18T04:03:17.114Z,72.90
2018-01-18T04:05:44.554Z,72.94
2018-01-18T04:08:12.036Z,73.29
2018-01-18T04:10:39.489Z,73.32
2018-01-18T04:13:06.946Z,73.28
2018-01-18T04:15:34.416Z,72.88
2018-01-18T04:18:01.878Z,72.87
2018-01-18T04:20:29.374Z,72.77
2018-01-18T04:22:56.825Z,72.91
2018-01-18T04:25:24.288Z,72.78
2018-01-18T04:27:51.822Z,72.85
2018-01-18T04:30:19.262Z,72.57
2018-01-18T04:32:46.707Z,72.94
2018-01-18T04:35:14.161Z,72.95
2018-01-18T04:37:41.603Z,72.72
2018-01-18T04:40:09.090Z,73.02
2018-01-18T04:42:36.561Z,72.75
2018-01-18T04:45:04.012Z,72.72
2018-01-18T04:47:31.433Z,72.21
2018-01-18T04:49:58.931Z,71.89
2018-01-18T04:52:26.404Z,71.62
2018-01-18T04:54:53.851Z,71.59
2018-01-18T04:57:21.298Z,71.42
2018-01-18T05:02:14.826Z,70.76
2018-01-18T05:04:42.336Z,70.60
2018-01-18T05:07:09.778Z,70.12
2018-01-18T05:09:37.243Z,69.86
2018-01-18T05:12:04.702Z,69.12
2018-01-18T05:14:32.790Z,67.92
2018-01-18T05:17:00.314Z,66.82
2018-01-18T05:19:27.784Z,65.07
2018-01-18T05:21:55.244Z,64.09
2018-01-18T05:24:22.708Z,64.28
2018-01-18T05:26:50.160Z,64.10
2018-01-18T05:29:17.641Z,64.26
2018-01-18T05:31:45.095Z,65.04
2018-01-18T05:34:12.564Z,65.43
2018-01-18T05:36:40.017Z,66.06
2018-01-18T05:39:07.465Z,67.23
2018-01-18T05:41:34.920Z,68.29
2018-01-18T05:44:02.350Z,68.92
2018-01-18T05:46:29.790Z,69.44
2018-01-18T05:48:57.326Z,69.62
2018-01-18T05:51:24.774Z,69.60
2018-01-18T05:53:52.251Z,69.76
2018-01-18T05:56:19.816Z,69.99
2018-01-18T05:58:47.269Z,70.09
2018-01-18T06:01:14.706Z,70.24
2018-01-18T06:03:42.162Z,70.56
2018-01-18T06:06:09.616Z,70.76
2018-01-18T06:08:37.087Z,70.94
2018-01-18T06:11:04.604Z,71.01
2018-01-18T06:13:32.054Z,71.40
2018-01-18T06:15:59.523Z,71.81
2018-01-18T06:18:27.144Z,71.70
2018-01-18T06:20:54.668Z,72.28
2018-01-18T06:23:22.118Z,72.73
2018-01-18T06:25:49.624Z,72.67
2018-01-18T06:28:17.468Z,73.38
2018-01-18T06:30:45.062Z,73.63
2018-01-18T06:33:12.505Z,73.77
2018-01-18T06:35:39.965Z,73.96
2018-01-18T06:38:07.394Z,73.89
2018-01-18T06:40:34.991Z,74.19
2018-01-18T06:43:02.466Z,74.34
2018-01-18T06:45:29.942Z,74.22
2018-01-18T06:47:57.588Z,74.09
2018-01-18T06:50:25.069Z,74.35
2018-01-18T06:52:52.528Z,73.90
2018-01-18T06:55:19.993Z,73.51
2018-01-18T06:57:47.469Z,73.43
2018-01-18T07:00:14.917Z,73.05
2018-01-18T07:02:42.359Z,73.90
2018-01-18T07:05:09.824Z,71.72
2018-01-18T07:07:37.263Z,70.62
2018-01-18T07:10:04.699Z,69.54
2018-01-18T07:12:32.233Z,68.76
2018-01-18T07:14:59.687Z,69.53
2018-01-18T07:17:27.155Z,69.68
2018-01-18T07:19:54.603Z,70.06
2018-01-18T07:22:22.039Z,70.33
2018-01-18T07:24:49.489Z,70.61
2018-01-18T07:27:16.986Z,70.01
2018-01-18T07:29:44.474Z,70.05
2018-01-18T07:32:11.905Z,70.17
2018-01-18T07:34:39.357Z,69.87
2018-01-18T07:37:06.975Z,69.70
2018-01-18T07:39:34.447Z,69.52
2018-01-18T07:42:01.898Z,69.56
2018-01-18T07:44:29.357Z,69.71
2018-01-18T07:46:56.782Z,69.63
2018-01-18T07:49:24.245Z,69.51
2018-01-18T07:51:51.698Z,69.59
2018-01-18T07:54:19.160Z,70.26
2018-01-18T07:56:46.683Z,70.54
2018-01-18T07:59:14.135Z,70.95
2018-01-18T08:01:41.592Z,71.07
2018-01-18T08:04:14.819Z,71.40
2018-01-18T08:06:42.276Z,71.54
2018-01-18T08:09:09.743Z,71.67
2018-01-18T08:11:37.222Z,71.63
2018-01-18T08:14:04.688Z,71.61
2018-01-18T08:16:32.423Z,71.54
2018-01-18T08:18:59.906Z,71.23
2018-01-18T08:21:27.368Z,70.94
2018-01-18T08:23:54.844Z,70.43
2018-01-18T08:26:22.290Z,70.18
2018-01-18T08:28:49.747Z,69.28
2018-01-18T08:31:17.231Z,69.10
2018-01-18T08:33:44.688Z,68.69
2018-01-18T08:36:12.150Z,68.40
2018-01-18T08:38:39.603Z,68.44
2018-01-18T08:43:40.808Z,67.93
2018-01-18T08:46:08.272Z,68.10
2018-01-18T08:48:35.750Z,67.86
2018-01-18T08:51:03.236Z,67.96
2018-01-18T08:53:30.707Z,67.74
2018-01-18T08:55:58.151Z,67.59
2018-01-18T08:58:25.614Z,67.07
2018-01-18T09:00:53.049Z,66.65
2018-01-18T09:03:20.506Z,66.29
2018-01-18T09:05:47.982Z,65.99
2018-01-18T09:08:15.674Z,65.55
2018-01-18T09:10:43.120Z,65.45
2018-01-18T09:13:10.584Z,65.23
2018-01-18T09:15:38.048Z,64.31
2018-01-18T09:18:05.491Z,64.49
2018-01-18T09:20:33.365Z,64.28
2018-01-18T09:23:00.823Z,63.66
2018-01-18T09:25:28.267Z,63.16
2018-01-18T09:27:55.732Z,63.03
2018-01-18T09:30:23.211Z,62.94
2018-01-18T09:32:50.649Z,63.03
2018-01-18T09:35:18.122Z,62.81
2018-01-18T09:37:45.628Z,62.35
2018-01-18T09:40:13.120Z,62.46
2018-01-18T09:42:40.601Z,62.30
2018-01-18T09:45:08.042Z,62.25
2018-01-18T09:47:35.494Z,61.92
2018-01-18T09:50:02.971Z,61.52
2018-01-18T09:52:30.571Z,61.38
2018-01-18T09:54:58.058Z,61.58
2018-01-18T09:57:25.520Z,61.66
2018-01-18T09:59:52.971Z,61.26
2018-01-18T10:02:20.424Z,61.00
2018-01-18T10:04:47.878Z,60.68
2018-01-18T10:07:15.323Z,60.22
2018-01-18T10:09:42.767Z,60.44
2018-01-18T10:12:10.653Z,59.32
2018-01-18T10:14:38.117Z,59.28
2018-01-18T10:17:05.594Z,59.43
2018-01-18T10:19:33.068Z,59.32
2018-01-18T10:22:00.536Z,59.46
2018-01-18T10:24:28.382Z,59.63
2018-01-18T10:26:55.843Z,59.77
2018-01-18T10:29:23.299Z,60.20
2018-01-18T10:31:51.026Z,60.32
2018-01-18T10:34:18.505Z,60.52
2018-01-18T10:36:45.974Z,61.14
2018-01-18T10:39:13.429Z,61.63
2018-01-18T10:41:40.883Z,61.80
2018-01-18T10:44:08.366Z,61.43
2018-01-18T10:46:35.809Z,61.68
2018-01-18T10:49:03.831Z,62.36
2018-01-18T10:51:31.335Z,62.71
2018-01-18T10:53:58.799Z,62.48
2018-01-18T10:56:26.275Z,62.79
2018-01-18T10:58:53.756Z,62.39
2018-01-18T11:01:21.213Z,62.35
2018-01-18T11:03:48.673Z,62.59
2018-01-18T11:06:16.173Z,62.18
2018-01-18T11:08:43.622Z,61.69
2018-01-18T11:11:11.202Z,61.11
2018-01-18T11:13:38.651Z,60.58
2018-01-18T11:16:06.105Z,60.45
2018-01-18T11:18:33.564Z,60.07
2018-01-18T11:21:01.125Z,60.74
2018-01-18T11:23:28.576Z,61.69
2018-01-18T11:25:56.036Z,61.82
2018-01-18T11:28:23.498Z,63.18
2018-01-18T11:30:50.954Z,63.88
2018-01-18T11:33:18.430Z,62.37
2018-01-18T11:35:45.891Z,62.75
2018-01-18T11:38:13.336Z,62.84
2018-01-18T11:40:41.507Z,63.53
2018-01-18T11:43:08.954Z,62.77
2018-01-18T11:45:36.450Z,63.09
2018-01-18T11:48:03.912Z,62.74
2018-01-18T11:50:31.673Z,63.29
2018-01-18T11:52:59.302Z,63.78
2018-01-18T11:55:26.791Z,63.79
2018-01-18T11:57:54.265Z,63.57
2018-01-18T12:00:21.775Z,63.51
2018-01-18T12:02:49.459Z,62.96
2018-01-18T12:05:16.922Z,63.16
2018-01-18T12:07:44.386Z,63.87
2018-01-18T12:10:11.831Z,62.73
2018-01-18T12:12:39.304Z,62.75
2018-01-18T12:15:06.746Z,62.25
2018-01-18T12:17:34.219Z,62.33
2018-01-18T12:20:01.671Z,61.75
2018-01-18T12:22:29.116Z,62.12
2018-01-18T12:24:56.565Z,61.96
2018-01-18T12:27:24.020Z,61.50
2018-01-18T12:29:51.465Z,62.91
2018-01-18T12:32:18.935Z,63.10
2018-01-18T12:34:46.381Z,63.74
2018-01-18T12:37:13.823Z,63.76
2018-01-18T12:39:41.305Z,63.52
2018-01-18T12:42:08.769Z,63.87
2018-01-18T12:44:36.226Z,63.14
2018-01-18T12:47:03.756Z,63.46
2018-01-18T12:49:31.171Z,63.52
2018-01-18T12:51:58.666Z,63.39
2018-01-18T12:54:26.305Z,63.19
2018-01-18T12:56:53.853Z,63.55
2018-01-18T12:59:21.279Z,64.49
2018-01-18T13:01:48.747Z,64.60
2018-01-18T13:04:16.558Z,64.92
2018-01-18T13:06:44.326Z,65.74
2018-01-18T13:09:11.818Z,66.29
2018-01-18T13:11:39.282Z,66.79
2018-01-18T13:14:06.734Z,67.39
2018-01-18T13:16:34.398Z,67.22
2018-01-18T13:19:01.883Z,66.73
2018-01-18T13:21:29.396Z,67.39
2018-01-18T13:23:56.846Z,66.96
2018-01-18T13:26:24.363Z,66.84
2018-01-18T13:28:51.826Z,66.51
2018-01-18T13:31:19.270Z,65.63
2018-01-18T13:33:46.754Z,65.66
2018-01-18T13:36:14.212Z,65.46
2018-01-18T13:38:41.696Z,65.95
2018-01-18T13:41:09.203Z,66.23
2018-01-18T13:43:36.665Z,66.28
2018-01-18T13:46:04.416Z,66.57
2018-01-18T13:48:32.146Z,67.06
2018-01-18T13:50:59.594Z,67.28
2018-01-18T13:53:27.051Z,67.37
2018-01-18T13:55:54.510Z,67.39
2018-01-18T13:58:21.962Z,67.44
2018-01-18T14:00:50.493Z,67.26
2018-01-18T14:03:18.044Z,67.40
2018-01-18T14:05:45.501Z,67.58
2018-01-18T14:08:12.994Z,67.24
2018-01-18T14:10:40.452Z,67.11
2018-01-18T14:13:07.895Z,67.01
2018-01-18T14:15:35.368Z,67.00
2018-01-18T14:18:03.439Z,66.59
2018-01-18T14:20:31.230Z,67.15
2018-01-18T14:22:58.838Z,66.30
2018-01-18T14:25:26.322Z,66.48
2018-01-18T14:27:53.900Z,66.35
2018-01-18T14:30:21.370Z,66.20
2018-01-18T14:32:48.890Z,65.91
2018-01-18T14:35:16.399Z,65.82
2018-01-18T14:37:43.896Z,65.18
2018-01-18T14:40:11.402Z,65.21
2018-01-18T14:42:39.150Z,65.30
2018-01-18T14:45:06.629Z,64.72
2018-01-18T14:50:02.278Z,64.50
2018-01-18T14:52:29.823Z,63.40
2018-01-18T14:54:57.405Z,62.95
2018-01-18T14:57:24.878Z,62.69
2018-01-18T14:59:52.342Z,62.20
2018-01-18T15:02:19.806Z,61.13
2018-01-18T15:04:47.295Z,60.90
2018-01-18T15:07:15.067Z,60.93
2018-01-18T15:09:42.533Z,61.01
2018-01-18T15:12:10.420Z,61.02
2018-01-18T15:14:37.883Z,61.87
2018-01-18T15:17:07.499Z,62.26
2018-01-18T15:19:34.976Z,63.27
2018-01-18T15:22:02.434Z,62.96
2018-01-18T15:24:30.131Z,63.10
2018-01-18T15:26:58.624Z,62.95
2018-01-18T15:29:26.102Z,62.83
2018-01-18T15:31:53.594Z,62.80
2018-01-18T15:34:21.158Z,62.71
2018-01-18T15:36:49.382Z,62.79
2018-01-18T15:39:17.929Z,62.75
2018-01-18T15:41:45.387Z,62.92
2018-01-18T15:44:12.834Z,63.41
2018-01-18T15:46:43.255Z,63.32
2018-01-18T15:49:11.430Z,63.61
2018-01-18T15:51:38.895Z,63.67
2018-01-18T15:54:06.354Z,63.75
2018-01-18T15:56:34.147Z,64.00
2018-01-18T15:59:01.620Z,64.25
2018-01-18T16:01:29.168Z,63.75
2018-01-18T16:03:56.628Z,63.31
2018-01-18T16:06:24.091Z,63.02
2018-01-18T16:08:51.608Z,62.31
2018-01-18T16:11:19.042Z,62.08
2018-01-18T16:13:46.504Z,60.83
2018-01-18T16:16:14.009Z,60.55
2018-01-18T16:18:41.467Z,59.42
2018-01-18T16:21:08.969Z,59.37
2018-01-18T16:23:36.431Z,58.64
2018-01-18T16:26:03.930Z,58.01
2018-01-18T16:28:31.381Z,57.87
2018-01-18T16:30:58.826Z,58.09
2018-01-18T16:33:26.295Z,58.40
2018-01-18T16:35:53.734Z,58.88
2018-01-18T16:38:21.199Z,59.03
2018-01-18T16:40:48.667Z,59.22
2018-01-18T16:43:16.139Z,59.49
2018-01-18T16:45:43.636Z,59.21
2018-01-18T16:48:11.100Z,59.50
2018-01-18T16:50:38.565Z,59.72
2018-01-18T16:53:06.025Z,59.78
2018-01-18T16:55:33.951Z,59.77
2018-01-18T16:58:01.399Z,59.73
2018-01-18T17:00:29.046Z,59.26
2018-01-18T17:02:56.448Z,59.38
2018-01-18T17:05:23.896Z,59.06
2018-01-18T17:07:51.730Z,59.17
2018-01-18T17:10:19.198Z,58.84
2018-01-18T17:12:46.654Z,58.53
2018-01-18T17:15:14.303Z,58.43
2018-01-18T17:17:47.487Z,58.51
2018-01-18T17:20:17.637Z,58.33
2018-01-18T17:22:45.259Z,58.94
2018-01-18T17:25:12.710Z,59.10
2018-01-18T17:27:40.282Z,59.47
2018-01-18T17:30:07.779Z,59.70
2018-01-18T17:32:35.383Z,59.89
2018-01-18T17:35:02.837Z,59.77
2018-01-18T17:37:30.307Z,59.90
2018-01-18T17:39:57.847Z,59.77
2018-01-18T17:42:25.298Z,60.04
2018-01-18T17:44:52.822Z,60.02
2018-01-18T17:47:20.336Z,60.71
2018-01-18T17:49:47.774Z,61.22
2018-01-18T17:52:16.040Z,61.51
2018-01-18T17:54:43.496Z,61.68
2018-01-18T17:57:10.948Z,62.22
2018-01-18T17:59:38.411Z,62.31
2018-01-18T18:02:05.882Z,62.33
2018-01-18T18:04:33.358Z,62.90
2018-01-18T18:07:00.833Z,63.07
2018-01-18T18:09:28.323Z,63.41
2018-01-18T18:11:55.782Z,63.90
2018-01-18T18:14:23.233Z,63.99
2018-01-18T18:16:50.703Z,64.80
2018-01-18T18:19:18.172Z,64.76
2018-01-18T18:21:45.615Z,65.09
2018-01-18T18:24:13.630Z,64.36
2018-01-18T18:26:41.432Z,64.45
2018-01-18T18:29:09.046Z,67.45
2018-01-18T18:31:36.484Z,65.34
2018-01-18T18:34:03.952Z,63.25
2018-01-18T18:36:31.510Z,62.78
2018-01-18T18:38:59.013Z,62.40
2018-01-18T18:41:26.467Z,62.41
2018-01-18T18:43:53.936Z,62.07
2018-01-18T18:46:21.403Z,61.75
2018-01-18T18:48:49.084Z,61.67
2018-01-18T18:51:16.643Z,61.94
2018-01-18T18:53:44.110Z,61.90
2018-01-18T18:56:11.624Z,61.66
2018-01-18T18:58:39.160Z,61.54
2018-01-18T19:01:06.667Z,61.55
2018-01-18T19:03:34.124Z,61.43
2018-01-18T19:06:01.573Z,61.99
2018-01-18T19:08:29.040Z,62.45
2018-01-18T19:10:56.556Z,62.44
2018-01-18T19:13:23.981Z,62.67
2018-01-18T19:15:51.442Z,62.76
2018-01-18T19:18:19.399Z,61.88
2018-01-18T19:20:46.846Z,61.78
2018-01-18T19:23:14.307Z,61.46
2018-01-18T19:25:41.762Z,61.37
2018-01-18T19:28:09.220Z,61.66
2018-01-18T19:30:36.683Z,61.97
2018-01-18T19:33:04.130Z,61.56
2018-01-18T19:35:31.595Z,61.70
2018-01-18T19:37:59.124Z,61.34
2018-01-18T19:40:26.576Z,62.17
2018-01-18T19:55:56.880Z,63.23
2018-01-18T19:58:24.409Z,63.01
2018-01-18T20:00:52.175Z,63.05
2018-01-18T20:03:20.575Z,63.08
2018-01-18T20:05:48.063Z,63.16
2018-01-18T20:08:15.889Z,63.21
2018-01-18T20:10:43.409Z,63.37
2018-01-18T20:13:11.016Z,63.78
2018-01-18T20:15:38.462Z,64.46
2018-01-18T20:18:05.947Z,64.73
2018-01-18T20:20:34.267Z,65.20
2018-01-18T20:23:01.946Z,65.89
2018-01-18T20:25:29.694Z,66.18
2018-01-18T20:27:57.374Z,66.13
2018-01-18T20:30:24.839Z,66.83
2018-01-18T20:32:52.334Z,67.20
2018-01-18T20:35:19.788Z,67.63
2018-01-18T20:37:47.256Z,67.75
2018-01-18T20:40:14.853Z,67.97
2018-01-18T20:42:42.416Z,68.11
2018-01-18T20:45:09.920Z,68.00
2018-01-18T20:47:37.379Z,67.84
2018-01-18T20:50:04.921Z,67.92
2018-01-18T20:52:32.390Z,67.30
2018-01-18T20:54:59.853Z,67.27
2018-01-18T20:57:27.317Z,67.53
2018-01-18T20:59:54.912Z,68.15
2018-01-18T21:02:22.407Z,67.90
2018-01-18T21:04:50.598Z,68.52
2018-01-18T21:07:18.038Z,68.74
2018-01-18T21:09:45.554Z,68.82
2018-01-18T21:12:12.992Z,68.98
2018-01-18T21:14:40.503Z,69.57
2018-01-18T21:17:07.996Z,69.46
2018-01-18T21:19:35.471Z,69.46
2018-01-18T21:22:02.944Z,69.61
2018-01-18T21:24:30.586Z,69.95
2018-01-18T21:26:58.042Z,69.51
2018-01-18T21:29:25.500Z,69.95
2018-01-18T21:31:52.982Z,69.59
2018-01-18T21:34:20.430Z,70.29
2018-01-18T21:36:48.276Z,70.79
2018-01-18T21:39:15.791Z,70.73
2018-01-18T21:41:43.322Z,71.36
2018-01-18T21:44:11.317Z,72.23
2018-01-18T21:46:38.804Z,72.92
2018-01-18T21:49:06.315Z,73.49
2018-01-18T21:51:33.986Z,74.08
2018-01-18T21:54:01.472Z,75.17
2018-01-18T21:56:29.209Z,75.97
2018-01-18T21:58:56.663Z,76.51
2018-01-18T22:01:24.375Z,76.49
2018-01-18T22:16:51.658Z,78.42
2018-01-18T22:19:19.147Z,77.97
2018-01-18T22:21:46.603Z,78.89
2018-01-18T22:24:14.046Z,79.07
2018-01-18T22:26:41.549Z,79.99
2018-01-18T22:29:09.031Z,80.20
2018-01-18T22:31:36.797Z,80.43
2018-01-18T22:34:04.252Z,80.33
2018-01-18T22:36:31.761Z,79.61
2018-01-18T22:38:59.215Z,78.25
2018-01-18T22:41:26.651Z,76.28
2018-01-18T22:43:54.096Z,75.78
2018-01-18T22:46:21.546Z,75.13
2018-01-18T22:48:49.059Z,73.85
2018-01-18T22:51:17.363Z,74.42
2018-01-18T22:53:44.830Z,74.09
2018-01-18T22:56:12.276Z,75.16
2018-01-18T22:58:39.731Z,75.63
2018-01-18T23:01:07.187Z,74.95
2018-01-18T23:03:34.616Z,75.98
2018-01-18T23:06:02.141Z,75.18
2018-01-18T23:08:29.618Z,74.43
2018-01-18T23:10:57.075Z,74.38
2018-01-18T23:13:24.619Z,73.47
2018-01-18T23:15:52.090Z,73.19
2018-01-18T23:18:19.541Z,72.77
2018-01-18T23:20:47.333Z,73.79
2018-01-18T23:23:14.779Z,73.16
2018-01-18T23:25:42.222Z,73.80
2018-01-18T23:28:09.661Z,73.58
2018-01-18T23:30:37.165Z,73.58
2018-01-18T23:33:05.336Z,72.38
2018-01-18T23:35:33.128Z,72.75
2018-01-18T23:38:01.000Z,74.66
2018-01-18T23:40:28.456Z,74.70
2018-01-18T23:42:55.906Z,74.53
2018-01-18T23:45:23.378Z,73.29
2018-01-18T23:47:50.867Z,74.36
2018-01-18T23:50:18.474Z,73.89
2018-01-18T23:52:45.930Z,72.04
2018-01-18T23:55:13.411Z,72.38
2018-01-18T23:57:40.837Z,67.70
